Aérodrome :
LOGIN :

S'inscrire | Disclaimer

   EN    FR    IT 

 










Légende :    VFR   VFR Marginal   IFR   IFR Intensif   IFR Très Intensif
Visi : 
Plafond : 
>= 8 km
>= 3000ft
5 à 8 km
1000 à 3000 ft
1500m à 5 km
500 à 1000 ft
800 à 1500m
200 à 500 ft
< 800m
< 200 ft
Symboles :   Orages  Brouillard  Fortes neiges  Fortes précipitations  Vent > 20 kt
SIGMETs :   Divers  Orages  Givrage  Turbulence  Onde Orograph.  Cendres Volcan.







- Altitude de l'aérodrome : 62 ft
- Code IATA : TAN


GMTT - Tanger Ibn Batouta

DERNIER METAR :
  • 160630Z 28005KT 8000 FEW013 BKN016 19/18 Q1021 NOSIG

METARs EXPIRÉS :
  • 160600Z 29005KT 8000 FEW013 BKN016 19/17 Q1021 NOSIG
  • 160530Z 29005KT 8000 FEW013 BKN016 19/17 Q1021 NOSIG
  • 160500Z 30006KT 8000 BKN016 19/17 Q1021 NOSIG
  • 160430Z 28005KT 8000 SCT016 19/17 Q1020 NOSIG
  • 160400Z 28005KT 8000 SCT016 18/16 Q1021 NOSIG

TAF TAF GMTT
Valide du 16 à 06h jusqu'au 17 à 12h UTC


160500Z 1606/1712 28006KT 8000 BKN016
BECMG 1620/1622 VRB02KT
PROB30
TEMPO 1700/1705 4000 BR BKN010
BECMG 1709/1711 36012KT
Pas de NOTAMs connus pour ce terrain.



MET'MAP, la Météo Aéronautique d'un coup d'oeil ! - Copyright ORBIFLY Décembre 2007 - Disclaimer

ORBIFLY MET'MAP TEAM :

Programmation & Développement : Alexandra Zaïnal
Conception & Développement : Baudouin d'Aumeries
Co-Programmation & Développement : Marc-Olivier Méhu
Soutien technique & logistique : Manuel Goepfert

Contact : metmap@orbifly.com




SOURCES & CREDITS :

   NOAA